createdAt,value
2018-11-20T00:02:50.761Z,12.67
2018-11-20T00:05:42.065Z,12.53
2018-11-20T00:08:46.135Z,10.70
2018-11-20T00:11:41.824Z,12.03
2018-11-20T00:14:36.040Z,11.30
2018-11-20T00:17:14.913Z,11.70
2018-11-20T00:20:09.843Z,11.40
2018-11-20T00:22:57.401Z,11.77
2018-11-20T00:25:44.184Z,12.33
2018-11-20T00:28:30.693Z,10.77
2018-11-20T00:31:20.554Z,10.87
2018-11-20T00:34:29.819Z,12.03
2018-11-20T00:37:16.962Z,13.60
2018-11-20T00:39:58.387Z,13.97
2018-11-20T00:42:46.701Z,13.87
2018-11-20T00:45:36.694Z,13.97
2018-11-20T00:48:30.580Z,13.43
2018-11-20T00:51:21.710Z,12.90
2018-11-20T00:54:17.983Z,12.87
2018-11-20T00:57:21.077Z,12.87
2018-11-20T01:00:21.659Z,13.97
2018-11-20T01:03:13.169Z,13.40
2018-11-20T01:06:21.838Z,14.07
2018-11-20T01:09:14.074Z,14.07
2018-11-20T01:12:02.930Z,15.10
2018-11-20T01:14:57.421Z,13.97
2018-11-20T01:17:47.505Z,13.17
2018-11-20T01:20:27.738Z,15.13
2018-11-20T01:23:11.958Z,12.83
2018-11-20T01:26:02.290Z,12.10
2018-11-20T01:28:49.998Z,12.13
2018-11-20T01:31:43.551Z,12.60
2018-11-20T01:34:37.490Z,14.20
2018-11-20T01:37:34.396Z,13.53
2018-11-20T01:40:24.075Z,13.60
2018-11-20T01:43:18.285Z,13.87
2018-11-20T01:46:09.516Z,12.00
2018-11-20T01:49:00.835Z,14.57
2018-11-20T01:51:58.565Z,13.70
2018-11-20T01:54:50.570Z,13.57
2018-11-20T01:57:47.577Z,14.97
2018-11-20T02:00:38.793Z,14.30
2018-11-20T02:03:29.024Z,12.93
2018-11-20T02:06:20.263Z,12.90
2018-11-20T02:09:06.223Z,14.27
2018-11-20T02:11:58.074Z,14.00
2018-11-20T02:15:07.426Z,12.90
2018-11-20T02:18:07.741Z,13.10
2018-11-20T02:20:55.032Z,12.87
2018-11-20T02:23:48.610Z,13.63
2018-11-20T02:26:39.855Z,12.33
2018-11-20T02:29:36.935Z,13.73
2018-11-20T02:32:19.741Z,13.33
2018-11-20T02:35:10.917Z,13.67
2018-11-20T02:37:56.621Z,11.60
2018-11-20T02:40:44.929Z,12.50
2018-11-20T02:43:42.151Z,12.47
2018-11-20T02:46:39.702Z,12.00
2018-11-20T02:49:26.942Z,13.17
2018-11-20T02:52:20.069Z,12.37
2018-11-20T02:55:00.202Z,12.97
2018-11-20T02:57:47.307Z,12.63
2018-11-20T03:00:36.713Z,14.07
2018-11-20T03:03:28.280Z,13.50
2018-11-20T03:06:18.478Z,13.07
2018-11-20T03:09:08.394Z,13.20
2018-11-20T03:12:05.532Z,13.00
2018-11-20T03:14:55.283Z,13.47
2018-11-20T03:17:47.477Z,10.33
2018-11-20T03:20:34.328Z,12.20
2018-11-20T03:23:37.994Z,12.90
2018-11-20T03:26:25.581Z,13.10
2018-11-20T03:29:20.127Z,12.30
2018-11-20T03:32:01.560Z,13.03
2018-11-20T03:34:51.449Z,13.33
2018-11-20T03:37:41.087Z,12.60
2018-11-20T03:40:31.136Z,11.53
2018-11-20T03:43:13.306Z,11.80
2018-11-20T03:45:59.210Z,14.00
2018-11-20T03:49:02.696Z,11.60
2018-11-20T03:51:46.332Z,10.67
2018-11-20T03:54:48.469Z,11.83
2018-11-20T03:57:41.484Z,10.97
2018-11-20T04:00:28.556Z,10.67
2018-11-20T04:03:13.116Z,11.67
2018-11-20T04:06:00.802Z,11.30
2018-11-20T04:08:50.719Z,12.27
2018-11-20T04:11:36.274Z,12.40
2018-11-20T04:14:26.093Z,13.03
2018-11-20T04:17:22.936Z,11.00
2018-11-20T04:20:29.088Z,11.10
2018-11-20T04:23:18.642Z,11.87
2018-11-20T04:26:08.377Z,12.33
2018-11-20T04:28:59.282Z,14.03
2018-11-20T04:32:01.342Z,12.13
2018-11-20T04:34:49.711Z,13.13
2018-11-20T04:37:45.863Z,12.47
2018-11-20T04:40:30.116Z,13.77
2018-11-20T04:43:14.061Z,14.30
2018-11-20T04:46:01.878Z,14.13
2018-11-20T04:49:01.921Z,11.97
2018-11-20T04:52:08.296Z,14.23
2018-11-20T04:54:52.762Z,12.20
2018-11-20T04:57:58.710Z,15.33
2018-11-20T05:00:49.891Z,13.97
2018-11-20T05:03:29.642Z,14.43
2018-11-20T05:06:18.012Z,14.17
2018-11-20T05:09:00.606Z,14.23
2018-11-20T05:11:49.583Z,14.80
2018-11-20T05:14:37.051Z,14.20
2018-11-20T05:17:28.656Z,15.67
2018-11-20T05:20:17.526Z,12.73
2018-11-20T05:23:08.619Z,14.47
2018-11-20T05:25:59.820Z,14.40
2018-11-20T05:28:50.998Z,12.43
2018-11-20T05:31:33.414Z,15.20
2018-11-20T05:34:30.776Z,11.43
2018-11-20T05:37:24.506Z,13.80
2018-11-20T05:40:28.305Z,14.43
2018-11-20T05:43:32.094Z,16.27
2018-11-20T05:46:21.747Z,14.50
2018-11-20T05:49:07.863Z,13.53
2018-11-20T05:51:57.755Z,14.83
2018-11-20T05:55:04.213Z,13.43
2018-11-20T05:57:52.582Z,14.47
2018-11-20T06:00:51.825Z,13.83
2018-11-20T06:03:41.561Z,14.80
2018-11-20T06:06:42.220Z,15.10
2018-11-20T06:09:33.791Z,13.87
2018-11-20T06:12:20.676Z,15.70
2018-11-20T06:15:17.706Z,14.43
2018-11-20T06:18:20.761Z,14.20
2018-11-20T06:21:16.507Z,14.83
2018-11-20T06:23:52.656Z,14.03
2018-11-20T06:26:59.301Z,13.93
2018-11-20T06:29:47.803Z,14.80
2018-11-20T06:32:52.255Z,15.67
2018-11-20T06:35:42.027Z,13.20
2018-11-20T06:38:28.975Z,16.20
2018-11-20T06:41:28.889Z,15.33
2018-11-20T06:44:19.935Z,14.17
2018-11-20T06:47:09.292Z,14.83
2018-11-20T06:50:09.599Z,13.90
2018-11-20T06:52:57.359Z,13.67
2018-11-20T06:56:03.683Z,13.40
2018-11-20T06:58:51.377Z,14.93
2018-11-20T07:01:36.021Z,15.07
2018-11-20T07:04:23.233Z,15.03
2018-11-20T07:07:14.636Z,15.47
2018-11-20T07:10:05.824Z,12.80
2018-11-20T07:12:56.269Z,14.87
2018-11-20T07:15:50.093Z,14.67
2018-11-20T07:18:44.502Z,13.30
2018-11-20T07:21:41.436Z,14.97
2018-11-20T07:24:47.989Z,13.97
2018-11-20T07:27:54.316Z,15.20
2018-11-20T07:30:41.413Z,13.60
2018-11-20T07:33:41.443Z,16.27
2018-11-20T07:36:41.799Z,15.37
2018-11-20T07:39:29.209Z,18.98
2018-11-20T07:42:16.453Z,15.00
2018-11-20T07:45:07.391Z,16.50
2018-11-20T07:47:54.862Z,14.03
2018-11-20T07:50:37.840Z,14.27
2018-11-20T07:53:28.879Z,17.10
2018-11-20T07:56:18.361Z,15.03
2018-11-20T07:59:04.099Z,15.67
2018-11-20T08:01:55.240Z,16.30
2018-11-20T08:04:42.161Z,15.43
2018-11-20T08:07:29.338Z,16.17
2018-11-20T08:10:32.592Z,15.23
2018-11-20T08:13:26.803Z,13.30
2018-11-20T08:16:16.507Z,12.40
2018-11-20T08:19:04.240Z,15.93
2018-11-20T08:21:55.492Z,16.33
2018-11-20T08:24:50.533Z,17.17
2018-11-20T08:27:37.522Z,18.10
2018-11-20T08:30:37.798Z,16.67
2018-11-20T08:33:26.118Z,17.67
2018-11-20T08:36:17.409Z,16.63
2018-11-20T08:39:08.601Z,19.27
2018-11-20T08:41:52.110Z,17.10
2018-11-20T08:44:52.713Z,16.67
2018-11-20T08:47:50.244Z,17.07
2018-11-20T08:50:44.133Z,15.70
2018-11-20T08:53:42.271Z,15.20
2018-11-20T08:56:35.030Z,15.20
2018-11-20T08:59:22.683Z,16.17
2018-11-20T09:02:17.334Z,15.87
2018-11-20T09:05:20.716Z,15.07
2018-11-20T09:08:07.751Z,14.50
2018-11-20T09:10:54.461Z,15.67
2018-11-20T09:13:41.415Z,16.90
2018-11-20T09:16:32.638Z,15.10
2018-11-20T09:19:19.384Z,14.90
2018-11-20T09:22:25.734Z,15.87
2018-11-20T09:25:20.025Z,17.90
2018-11-20T09:28:07.172Z,16.10
2018-11-20T09:31:19.594Z,16.70
2018-11-20T09:34:16.460Z,15.70
2018-11-20T09:37:17.895Z,16.83
2018-11-20T09:40:52.242Z,16.60
2018-11-20T09:43:48.692Z,16.80
2018-11-20T09:46:43.212Z,16.07
2018-11-20T09:49:35.248Z,17.47
2018-11-20T09:52:29.789Z,18.43
2018-11-20T09:55:24.433Z,16.97
2018-11-20T09:58:28.206Z,17.87
2018-11-20T10:01:31.794Z,18.10
2018-11-20T10:04:34.744Z,15.73
2018-11-20T10:07:28.565Z,17.80
2018-11-20T10:10:26.902Z,18.47
2018-11-20T10:13:17.860Z,17.70
2018-11-20T10:16:04.840Z,23.77
2018-11-20T10:18:53.200Z,32.77
2018-11-20T10:21:51.590Z,30.30
2018-11-20T10:24:41.653Z,20.77
2018-11-20T10:27:23.569Z,17.47
2018-11-20T10:30:06.303Z,19.73
2018-11-20T10:32:56.775Z,18.60
2018-11-20T10:35:39.414Z,16.00
2018-11-20T10:38:26.744Z,16.40
2018-11-20T10:41:18.118Z,16.47
2018-11-20T10:44:12.452Z,16.93
2018-11-20T10:47:06.805Z,16.20
2018-11-20T10:50:13.238Z,17.67
2018-11-20T10:52:58.195Z,18.10
2018-11-20T10:55:47.980Z,16.13
2018-11-20T10:58:47.530Z,18.10
2018-11-20T11:01:44.426Z,16.40
2018-11-20T11:04:31.528Z,19.27
2018-11-20T11:07:29.321Z,18.10
2018-11-20T11:10:26.327Z,16.17
2018-11-20T11:13:57.244Z,17.57
2018-11-20T11:16:51.107Z,19.03
2018-11-20T11:19:37.307Z,19.50
2018-11-20T11:22:27.660Z,19.70
2018-11-20T11:25:16.732Z,22.27
2018-11-20T11:28:19.231Z,17.90
2018-11-20T11:31:08.016Z,18.93
2018-11-20T11:33:49.579Z,17.53
2018-11-20T11:36:43.064Z,18.53
2018-11-20T11:39:36.419Z,17.17
2018-11-20T11:42:45.083Z,20.87
2018-11-20T11:45:31.070Z,20.37
2018-11-20T11:48:30.718Z,20.60
2018-11-20T11:51:25.553Z,19.70
2018-11-20T11:54:21.549Z,19.20
2018-11-20T11:57:26.890Z,22.30
2018-11-20T12:00:20.470Z,19.20
2018-11-20T12:05:51.799Z,19.77
2018-11-20T12:08:37.601Z,18.40
2018-11-20T12:11:24.123Z,19.70
2018-11-20T12:14:07.662Z,19.73
2018-11-20T12:16:54.595Z,19.77
2018-11-20T12:19:43.780Z,21.27
2018-11-20T12:22:40.755Z,20.10
2018-11-20T12:25:43.133Z,17.70
2018-11-20T12:28:38.844Z,19.47
2018-11-20T12:31:24.913Z,20.03
2018-11-20T12:34:12.434Z,18.17
2018-11-20T12:37:11.814Z,21.30
2018-11-20T12:39:51.550Z,19.77
2018-11-20T12:42:38.645Z,19.17
2018-11-20T12:45:24.493Z,20.03
2018-11-20T12:48:23.845Z,18.90
2018-11-20T12:51:27.363Z,19.73
2018-11-20T12:54:16.811Z,19.40
2018-11-20T12:57:22.472Z,19.60
2018-11-20T13:00:21.703Z,19.30
2018-11-20T13:03:08.098Z,19.50
2018-11-20T13:05:58.259Z,18.10
2018-11-20T13:08:48.774Z,20.87
2018-11-20T13:11:46.919Z,18.43
2018-11-20T13:14:49.599Z,19.27
2018-11-20T13:17:28.027Z,18.93
2018-11-20T13:20:14.292Z,17.37
2018-11-20T13:23:11.975Z,20.47
2018-11-20T13:26:05.415Z,19.90
2018-11-20T13:28:55.828Z,18.90
2018-11-20T13:31:41.901Z,17.57
2018-11-20T13:34:50.305Z,19.57
2018-11-20T13:37:41.130Z,17.80
2018-11-20T13:41:28.544Z,17.80
2018-11-20T13:44:34.200Z,17.83
2018-11-20T13:47:33.907Z,16.37
2018-11-20T13:50:24.636Z,18.43
2018-11-20T13:53:24.791Z,19.83
2018-11-20T13:56:27.366Z,19.50
2018-11-20T13:59:13.921Z,16.50
2018-11-20T14:02:04.337Z,15.67
2018-11-20T14:04:53.841Z,19.57
2018-11-20T14:07:44.167Z,17.00
2018-11-20T14:10:32.247Z,17.40
2018-11-20T14:13:35.073Z,18.40
2018-11-20T14:16:28.647Z,17.37
2018-11-20T14:19:24.293Z,17.73
2018-11-20T14:22:22.112Z,17.40
2018-11-20T14:25:11.546Z,17.70
2018-11-20T14:27:49.187Z,17.83
2018-11-20T14:30:37.336Z,17.03
2018-11-20T14:33:36.807Z,18.87
2018-11-20T14:36:22.896Z,17.40
2018-11-20T14:39:11.867Z,18.23
2018-11-20T14:41:59.479Z,18.03
2018-11-20T14:44:46.296Z,18.27
2018-11-20T14:47:48.784Z,18.17
2018-11-20T14:50:37.819Z,18.50
2018-11-20T14:53:28.388Z,18.90
2018-11-20T14:56:11.232Z,18.70
2018-11-20T14:59:11.111Z,16.90
2018-11-20T15:02:01.316Z,17.13
2018-11-20T15:04:47.748Z,18.73
2018-11-20T15:07:32.769Z,17.17
2018-11-20T15:10:20.491Z,17.17
2018-11-20T15:13:09.383Z,18.10
2018-11-20T15:16:05.943Z,17.80
2018-11-20T15:18:53.451Z,18.93
2018-11-20T15:21:32.807Z,19.47
2018-11-20T15:24:32.816Z,18.10
2018-11-20T15:27:18.990Z,15.70
2018-11-20T15:30:08.981Z,18.13
2018-11-20T15:32:55.230Z,18.70
2018-11-20T15:35:41.637Z,19.67
2018-11-20T15:38:20.808Z,17.77
2018-11-20T15:41:08.971Z,19.03
2018-11-20T15:43:55.460Z,16.77
2018-11-20T15:46:41.604Z,16.27
2018-11-20T15:49:38.099Z,15.23
2018-11-20T15:52:28.850Z,15.23
2018-11-20T15:55:14.956Z,14.43
2018-11-20T15:58:11.887Z,15.73
2018-11-20T16:01:18.370Z,14.37
2018-11-20T16:04:19.908Z,14.33
2018-11-20T16:07:02.058Z,16.07
2018-11-20T16:09:51.293Z,14.73
2018-11-20T16:12:57.289Z,14.30
2018-11-20T16:15:59.742Z,14.23
2018-11-20T16:18:53.080Z,13.90
2018-11-20T16:21:46.431Z,14.23
2018-11-20T16:24:55.160Z,14.63
2018-11-20T16:27:46.467Z,14.03
2018-11-20T16:30:32.471Z,12.90
2018-11-20T16:33:19.069Z,12.17
2018-11-20T16:36:22.870Z,12.17
2018-11-20T16:39:08.916Z,12.33
2018-11-20T16:41:59.427Z,13.80
2018-11-20T16:44:41.854Z,13.30
2018-11-20T16:47:28.169Z,12.60
2018-11-20T16:50:21.251Z,10.27
2018-11-20T16:53:09.578Z,11.20
2018-11-20T16:56:04.265Z,11.10
2018-11-20T16:59:06.905Z,11.37
2018-11-20T17:01:57.534Z,10.50
2018-11-20T17:04:57.057Z,12.00
2018-11-20T17:07:47.226Z,11.23
2018-11-20T17:10:46.845Z,10.90
2018-11-20T17:13:33.246Z,12.23
2018-11-20T17:16:26.611Z,12.90
2018-11-20T17:19:35.622Z,12.43
2018-11-20T17:22:22.072Z,10.73
2018-11-20T17:25:08.155Z,11.40
2018-11-20T17:28:07.261Z,11.00
2018-11-20T17:30:54.812Z,10.97
2018-11-20T17:33:44.240Z,12.00
2018-11-20T17:36:33.593Z,12.40
2018-11-20T17:39:32.879Z,11.80
2018-11-20T17:42:20.410Z,11.93
2018-11-20T17:45:17.000Z,11.37
2018-11-20T17:48:11.103Z,11.67
2018-11-20T17:50:59.047Z,10.00
2018-11-20T17:53:38.778Z,10.50
2018-11-20T17:56:32.210Z,11.13
2018-11-20T17:59:22.461Z,11.70
2018-11-20T18:02:12.766Z,11.40
2018-11-20T18:04:50.143Z,11.73
2018-11-20T18:07:36.830Z,11.87
2018-11-20T18:10:26.672Z,13.43
2018-11-20T18:13:15.945Z,12.27
2018-11-20T18:16:02.164Z,15.00
2018-11-20T18:18:55.584Z,13.20
2018-11-20T18:21:49.036Z,12.93
2018-11-20T18:24:39.581Z,13.50
2018-11-20T18:27:30.069Z,12.83
2018-11-20T18:30:10.753Z,12.40
2018-11-20T18:32:58.858Z,12.40
2018-11-20T18:36:01.827Z,13.07
2018-11-20T18:39:02.021Z,12.87
2018-11-20T18:41:42.704Z,13.30
2018-11-20T18:44:38.910Z,11.93
2018-11-20T18:47:25.537Z,12.67
2018-11-20T18:50:12.404Z,13.17
2018-11-20T18:53:08.547Z,11.40
2018-11-20T18:55:56.057Z,12.97
2018-11-20T18:58:41.125Z,13.30
2018-11-20T19:01:22.094Z,11.07
2018-11-20T19:04:08.107Z,14.00
2018-11-20T19:07:04.618Z,13.20
2018-11-20T19:10:01.427Z,12.43
2018-11-20T19:12:47.746Z,12.40
2018-11-20T19:15:33.953Z,11.77
2018-11-20T19:18:18.247Z,13.63
2018-11-20T19:20:58.999Z,11.87
2018-11-20T19:23:47.926Z,14.80
2018-11-20T19:26:34.363Z,13.70
2018-11-20T19:29:20.386Z,11.80
2018-11-20T19:32:06.922Z,12.07
2018-11-20T19:35:00.364Z,14.40
2018-11-20T19:38:06.381Z,13.10
2018-11-20T19:40:53.483Z,13.63
2018-11-20T19:43:39.728Z,12.67
2018-11-20T19:46:27.255Z,12.23
2018-11-20T19:49:20.966Z,15.13
2018-11-20T19:52:17.225Z,14.57
2018-11-20T19:54:58.862Z,15.10
2018-11-20T19:57:52.558Z,12.57
2018-11-20T20:00:51.959Z,13.90
2018-11-20T20:03:32.405Z,13.73
2018-11-20T20:06:18.594Z,15.40
2018-11-20T20:09:24.300Z,15.40
2018-11-20T20:12:16.584Z,15.00
2018-11-20T20:15:02.310Z,14.90
2018-11-20T20:18:04.940Z,16.20
2018-11-20T20:21:00.872Z,16.60
2018-11-20T20:24:03.434Z,15.47
2018-11-20T20:27:03.252Z,16.43
2018-11-20T20:29:49.764Z,16.23
2018-11-20T20:32:40.216Z,16.87
2018-11-20T20:35:26.688Z,16.17
2018-11-20T20:38:34.971Z,16.30
2018-11-20T20:41:29.010Z,13.93
2018-11-20T20:44:29.015Z,15.27
2018-11-20T20:47:22.427Z,16.80
2018-11-20T20:50:20.582Z,16.27
2018-11-20T20:53:09.884Z,15.47
2018-11-20T20:56:00.295Z,16.63
2018-11-20T20:58:49.331Z,16.73
2018-11-20T21:01:35.807Z,18.20
2018-11-20T21:04:12.980Z,16.87
2018-11-20T21:07:01.937Z,16.87
2018-11-20T21:09:52.251Z,15.30
2018-11-20T21:12:48.758Z,17.10
2018-11-20T21:15:39.913Z,17.43
2018-11-20T21:18:26.327Z,18.53
2018-11-20T21:21:16.812Z,15.00
2018-11-20T21:24:03.878Z,16.93
2018-11-20T21:27:08.567Z,17.87
2018-11-20T21:33:53.256Z,17.97
2018-11-20T21:37:08.673Z,17.43
2018-11-20T21:39:57.736Z,16.90
2018-11-20T21:43:05.155Z,20.10
2018-11-20T21:45:51.225Z,19.50
2018-11-20T21:48:57.110Z,17.40
2018-11-20T21:51:41.624Z,16.80
2018-11-20T21:54:31.937Z,18.57
2018-11-20T21:57:27.338Z,17.53
2018-11-20T22:00:11.407Z,19.43
2018-11-20T22:03:05.591Z,20.40
2018-11-20T22:05:53.157Z,18.50
2018-11-20T22:08:39.553Z,20.00
2018-11-20T22:11:55.251Z,18.30
2018-11-20T22:14:26.092Z,20.57
2018-11-20T22:20:20.675Z,18.63
2018-11-20T22:23:59.882Z,21.20
2018-11-20T22:26:49.944Z,19.60
2018-11-20T22:29:37.434Z,19.43
2018-11-20T22:32:27.887Z,17.97
2018-11-20T22:35:17.406Z,21.27
2018-11-20T22:38:08.272Z,21.77
2018-11-20T22:40:56.041Z,20.70
2018-11-20T22:43:36.676Z,18.10
2018-11-20T22:46:17.489Z,20.73
2018-11-20T22:49:06.940Z,20.40
2018-11-20T22:52:09.619Z,18.40
2018-11-20T22:54:55.995Z,19.63
2018-11-20T22:57:46.193Z,19.20
2018-11-20T23:00:32.268Z,20.50
2018-11-20T23:03:22.618Z,19.20
2018-11-20T23:06:10.592Z,22.77
2018-11-20T23:08:39.131Z,19.57
2018-11-20T23:11:07.585Z,20.30
2018-11-20T23:13:35.987Z,18.63
2018-11-20T23:16:04.965Z,23.30
2018-11-20T23:18:36.496Z,19.87
2018-11-20T23:21:04.985Z,20.43
2018-11-20T23:23:36.341Z,20.03
2018-11-20T23:26:11.049Z,22.00
2018-11-20T23:28:48.648Z,20.33
2018-11-20T23:31:24.236Z,19.97
2018-11-20T23:33:58.951Z,20.97
2018-11-20T23:36:32.583Z,20.80
2018-11-20T23:39:03.197Z,19.90
2018-11-20T23:41:31.926Z,21.10
2018-11-20T23:44:04.131Z,22.80
2018-11-20T23:46:32.572Z,21.80
2018-11-20T23:49:01.362Z,20.47
2018-11-20T23:51:33.083Z,21.83
2018-11-20T23:54:04.368Z,19.00
2018-11-20T23:56:32.903Z,20.07
2018-11-20T23:59:05.421Z,21.50
